createdAt,value
2022-12-22T00:02:39.692Z,43.83
2022-12-22T00:05:51.842Z,42.25
2022-12-22T00:08:37.832Z,46.00
2022-12-22T00:11:26.536Z,43.38
2022-12-22T00:14:12.550Z,46.65
2022-12-22T00:16:58.640Z,43.22
2022-12-22T00:19:45.371Z,46.33
2022-12-22T00:22:38.510Z,43.47
2022-12-22T00:25:24.388Z,48.80
2022-12-22T00:28:10.325Z,48.28
2022-12-22T00:30:57.090Z,46.28
2022-12-22T00:33:43.157Z,44.40
2022-12-22T00:36:31.358Z,45.35
2022-12-22T00:39:17.375Z,43.70
2022-12-22T00:42:03.589Z,43.00
2022-12-22T00:44:49.727Z,49.50
2022-12-22T00:47:46.115Z,44.55
2022-12-22T00:50:32.245Z,45.30
2022-12-22T00:53:18.242Z,42.95
2022-12-22T00:56:04.122Z,41.88
2022-12-22T00:58:49.975Z,46.22
2022-12-22T01:01:37.216Z,47.35
2022-12-22T01:04:22.901Z,42.28
2022-12-22T01:07:08.992Z,43.33
2022-12-22T01:09:55.096Z,41.22
2022-12-22T01:12:42.242Z,42.72
2022-12-22T01:15:32.207Z,42.42
2022-12-22T01:18:17.917Z,41.03
2022-12-22T01:21:03.875Z,41.60
2022-12-22T01:23:49.984Z,43.08
2022-12-22T01:26:36.047Z,43.88
2022-12-22T01:29:21.967Z,42.75
2022-12-22T01:32:08.079Z,42.58
2022-12-22T01:34:55.086Z,43.47
2022-12-22T01:37:40.912Z,41.15
2022-12-22T01:40:32.001Z,38.67
2022-12-22T01:43:18.066Z,43.78
2022-12-22T01:46:04.112Z,41.30
2022-12-22T01:48:50.856Z,43.40
2022-12-22T01:51:39.439Z,44.88
2022-12-22T01:54:26.027Z,36.47
2022-12-22T01:57:12.150Z,42.72
2022-12-22T01:59:58.090Z,44.75
2022-12-22T02:02:45.917Z,48.38
2022-12-22T02:05:33.823Z,41.33
2022-12-22T02:08:38.567Z,47.22
2022-12-22T02:11:42.364Z,42.30
2022-12-22T02:14:30.314Z,43.20
2022-12-22T02:17:35.477Z,46.38
2022-12-22T02:20:30.097Z,40.75
2022-12-22T02:23:21.557Z,42.47
2022-12-22T02:26:10.119Z,41.05
2022-12-22T02:28:56.163Z,42.85
2022-12-22T02:31:42.368Z,44.47
2022-12-22T02:34:32.911Z,43.10
2022-12-22T02:37:39.258Z,42.03
2022-12-22T02:40:41.243Z,43.90
2022-12-22T02:43:30.487Z,45.30
2022-12-22T02:46:27.244Z,40.45
2022-12-22T02:49:17.002Z,48.35
2022-12-22T02:52:06.001Z,45.92
2022-12-22T02:54:53.099Z,48.00
2022-12-22T02:57:40.022Z,42.92
2022-12-22T03:00:26.520Z,45.58
2022-12-22T03:03:12.428Z,45.45
2022-12-22T03:05:58.258Z,48.70
2022-12-22T03:08:44.613Z,49.22
2022-12-22T03:11:30.697Z,44.97
2022-12-22T03:14:16.559Z,47.17
2022-12-22T03:17:02.492Z,42.08
2022-12-22T03:19:48.477Z,49.30
2022-12-22T03:22:34.431Z,45.47
2022-12-22T03:25:20.503Z,44.45
2022-12-22T03:27:47.676Z,45.55
2022-12-22T03:30:15.083Z,44.05
2022-12-22T03:32:42.249Z,45.08
2022-12-22T03:35:09.564Z,45.63
2022-12-22T03:37:36.683Z,48.00
2022-12-22T03:40:03.887Z,45.10
2022-12-22T03:42:49.647Z,43.85
2022-12-22T03:45:35.540Z,47.47
2022-12-22T03:48:02.727Z,46.28
2022-12-22T03:50:29.859Z,44.83
2022-12-22T03:52:56.995Z,48.55
2022-12-22T03:55:24.221Z,45.67
2022-12-22T03:57:51.377Z,48.22
2022-12-22T04:00:18.615Z,48.83
2022-12-22T04:02:46.046Z,44.38
2022-12-22T04:05:13.416Z,43.33
2022-12-22T04:07:40.535Z,47.80
2022-12-22T04:10:26.935Z,46.70
2022-12-22T04:12:54.409Z,48.08
2022-12-22T04:15:32.655Z,45.03
2022-12-22T04:18:00.057Z,43.33
2022-12-22T04:20:27.563Z,42.08
2022-12-22T04:22:55.466Z,46.30
2022-12-22T04:25:22.960Z,45.90
2022-12-22T04:27:50.131Z,47.17
2022-12-22T04:30:17.497Z,44.97
2022-12-22T04:32:44.607Z,41.55
2022-12-22T04:35:11.878Z,42.97
2022-12-22T04:37:39.058Z,51.60
2022-12-22T04:40:06.615Z,45.72
2022-12-22T04:42:33.783Z,48.78
2022-12-22T04:45:00.990Z,47.45
2022-12-22T04:47:28.149Z,54.63
2022-12-22T04:49:55.796Z,47.03
2022-12-22T04:52:23.446Z,46.05
2022-12-22T04:54:50.596Z,45.95
2022-12-22T04:57:17.703Z,44.67
2022-12-22T04:59:44.939Z,48.70
2022-12-22T05:02:12.251Z,48.33
2022-12-22T05:04:39.685Z,49.47
2022-12-22T05:07:07.830Z,49.05
2022-12-22T05:09:35.200Z,45.95
2022-12-22T05:12:22.436Z,46.58
2022-12-22T05:14:49.703Z,47.83
2022-12-22T05:17:16.822Z,43.28
2022-12-22T05:19:43.999Z,49.20
2022-12-22T05:22:11.130Z,44.88
2022-12-22T05:24:38.296Z,43.90
2022-12-22T05:27:05.505Z,43.17
2022-12-22T05:29:32.631Z,46.05
2022-12-22T05:31:59.785Z,45.55
2022-12-22T05:34:26.969Z,47.88
2022-12-22T05:36:54.086Z,47.65
2022-12-22T05:39:21.216Z,42.03
2022-12-22T05:41:48.401Z,45.42
2022-12-22T05:44:16.585Z,43.50
2022-12-22T05:46:43.900Z,47.55
2022-12-22T05:49:11.108Z,44.65
2022-12-22T05:51:38.306Z,44.67
2022-12-22T05:54:05.425Z,48.25
2022-12-22T05:56:32.613Z,43.25
2022-12-22T05:58:59.768Z,46.97
2022-12-22T06:01:27.054Z,49.03
2022-12-22T06:03:59.611Z,47.92
2022-12-22T06:06:27.729Z,55.20
2022-12-22T06:08:55.047Z,52.15
2022-12-22T06:11:22.260Z,51.92
2022-12-22T06:13:52.265Z,50.10
2022-12-22T06:16:19.543Z,49.92
2022-12-22T06:18:46.721Z,50.70
2022-12-22T06:21:13.916Z,49.90
2022-12-22T06:23:41.111Z,47.08
2022-12-22T06:26:08.258Z,44.00
2022-12-22T06:28:35.358Z,48.08
2022-12-22T06:31:02.582Z,47.13
2022-12-22T06:33:29.755Z,49.10
2022-12-22T06:35:59.098Z,51.95
2022-12-22T06:38:27.411Z,49.03
2022-12-22T06:40:54.565Z,50.25
2022-12-22T06:43:21.732Z,50.92
2022-12-22T06:45:48.960Z,52.63
2022-12-22T06:48:16.109Z,50.70
2022-12-22T06:50:43.260Z,52.35
2022-12-22T06:53:10.790Z,56.83
2022-12-22T06:55:38.050Z,57.50
2022-12-22T06:58:05.652Z,65.95
2022-12-22T07:00:33.131Z,65.35
2022-12-22T07:03:00.814Z,71.68
2022-12-22T07:05:30.217Z,66.78
2022-12-22T07:08:01.215Z,68.35
2022-12-22T07:10:52.107Z,58.53
2022-12-22T07:13:24.187Z,51.08
2022-12-22T07:15:59.469Z,50.35
2022-12-22T07:18:29.208Z,52.05
2022-12-22T07:20:56.369Z,52.53
2022-12-22T07:23:23.631Z,49.58
2022-12-22T07:25:50.962Z,46.88
2022-12-22T07:28:20.915Z,48.42
2022-12-22T07:30:49.135Z,53.00
2022-12-22T07:33:16.351Z,52.85
2022-12-22T07:35:43.492Z,49.75
2022-12-22T07:38:10.677Z,54.50
2022-12-22T07:40:41.731Z,54.00
2022-12-22T07:43:09.823Z,50.83
2022-12-22T07:45:37.022Z,43.72
2022-12-22T07:48:27.865Z,51.70
2022-12-22T07:50:56.269Z,48.88
2022-12-22T07:53:23.403Z,57.05
2022-12-22T07:55:50.643Z,52.35
2022-12-22T07:58:17.756Z,52.25
2022-12-22T08:00:44.965Z,63.08
2022-12-22T08:03:12.257Z,53.92
2022-12-22T08:05:39.594Z,58.85
2022-12-22T08:08:06.727Z,61.35
2022-12-22T08:10:34.087Z,61.35
2022-12-22T08:13:01.259Z,71.47
2022-12-22T08:15:28.448Z,71.13
2022-12-22T08:17:55.623Z,68.75
2022-12-22T08:20:22.725Z,68.15
2022-12-22T08:22:49.820Z,67.78
2022-12-22T08:25:17.093Z,65.57
2022-12-22T08:27:48.237Z,67.22
2022-12-22T08:30:15.597Z,67.22
2022-12-22T08:32:43.343Z,65.53
2022-12-22T08:35:11.142Z,55.63
2022-12-22T08:37:41.629Z,57.97
2022-12-22T08:40:29.292Z,56.70
2022-12-22T08:43:00.035Z,51.53
2022-12-22T08:45:27.233Z,48.53
2022-12-22T08:47:54.503Z,46.70
2022-12-22T08:50:21.713Z,52.28
2022-12-22T08:52:48.854Z,49.33
2022-12-22T08:55:16.121Z,58.03
2022-12-22T08:57:43.415Z,58.22
2022-12-22T09:00:12.956Z,53.10
2022-12-22T09:02:40.286Z,50.00
2022-12-22T09:05:07.785Z,48.22
2022-12-22T09:07:34.905Z,54.55
2022-12-22T09:10:02.095Z,54.80
2022-12-22T09:12:29.260Z,56.08
2022-12-22T09:14:56.947Z,50.65
2022-12-22T09:17:24.144Z,46.55
2022-12-22T09:19:51.465Z,46.08
2022-12-22T09:22:25.104Z,49.42
2022-12-22T09:24:55.497Z,46.05
2022-12-22T09:27:22.668Z,42.35
2022-12-22T09:29:49.821Z,44.45
2022-12-22T09:32:17.090Z,45.83
2022-12-22T09:34:44.276Z,46.17
2022-12-22T09:37:11.420Z,41.63
2022-12-22T09:39:38.627Z,53.10
2022-12-22T09:42:05.787Z,49.40
2022-12-22T09:44:39.061Z,44.90
2022-12-22T09:47:13.902Z,48.00
2022-12-22T09:49:41.092Z,56.45
2022-12-22T09:52:19.765Z,56.42
2022-12-22T09:54:46.987Z,51.70
2022-12-22T09:57:14.276Z,53.75
2022-12-22T09:59:41.387Z,54.15
2022-12-22T10:02:44.366Z,50.67
2022-12-22T10:05:28.401Z,49.13
2022-12-22T10:08:01.235Z,47.83
2022-12-22T10:10:29.748Z,46.17
2022-12-22T10:12:57.689Z,54.42
2022-12-22T10:15:25.604Z,48.08
2022-12-22T10:17:53.784Z,56.50
2022-12-22T10:20:22.642Z,56.83
2022-12-22T10:22:51.470Z,53.13
2022-12-22T10:25:27.269Z,56.08
2022-12-22T10:28:01.393Z,54.95
2022-12-22T10:30:33.651Z,50.53
2022-12-22T10:33:07.477Z,48.42
2022-12-22T10:35:54.160Z,47.38
2022-12-22T10:38:32.284Z,47.88
2022-12-22T10:41:02.900Z,49.38
2022-12-22T10:43:31.720Z,51.35
2022-12-22T10:45:59.374Z,43.60
2022-12-22T10:48:28.061Z,47.40
2022-12-22T10:50:55.866Z,47.65
2022-12-22T10:53:23.754Z,51.20
2022-12-22T10:56:05.479Z,51.70
2022-12-22T10:58:33.038Z,52.70
2022-12-22T11:01:05.663Z,52.42
2022-12-22T11:03:33.162Z,58.72
2022-12-22T11:06:01.627Z,62.95
2022-12-22T11:08:29.757Z,60.35
2022-12-22T11:10:59.727Z,68.57
2022-12-22T11:13:29.658Z,66.38
2022-12-22T11:15:59.546Z,68.55
2022-12-22T11:18:39.282Z,76.80
2022-12-22T11:21:25.274Z,69.00
2022-12-22T11:24:11.233Z,72.15
2022-12-22T11:26:50.965Z,60.40
2022-12-22T11:29:21.134Z,54.25
2022-12-22T11:31:51.333Z,53.08
2022-12-22T11:34:37.080Z,46.50
2022-12-22T11:37:10.247Z,53.60
2022-12-22T11:39:48.081Z,52.42
2022-12-22T11:42:24.289Z,53.30
2022-12-22T11:44:59.153Z,52.67
2022-12-22T11:47:38.213Z,47.33
2022-12-22T11:50:58.198Z,47.08
2022-12-22T11:52:52.469Z,55.42
2022-12-22T11:55:29.076Z,48.88
2022-12-22T11:58:12.886Z,54.85
2022-12-22T12:01:22.296Z,52.97
2022-12-22T12:04:03.141Z,55.35
2022-12-22T12:06:38.742Z,57.22
2022-12-22T12:09:19.582Z,59.35
2022-12-22T12:11:46.736Z,53.95
2022-12-22T12:14:35.317Z,58.90
2022-12-22T12:17:14.824Z,65.07
2022-12-22T12:19:44.060Z,57.28
2022-12-22T12:22:16.093Z,62.28
2022-12-22T12:24:43.279Z,59.90
2022-12-22T12:27:19.365Z,52.67
2022-12-22T12:33:00.570Z,56.17
2022-12-22T12:35:27.706Z,55.95
2022-12-22T12:37:59.298Z,55.47
2022-12-22T12:40:41.475Z,57.13
2022-12-22T12:43:16.198Z,55.65
2022-12-22T12:45:45.283Z,52.85
2022-12-22T12:48:24.520Z,59.10
2022-12-22T12:50:58.553Z,58.72
2022-12-22T12:53:26.734Z,59.63
2022-12-22T12:55:55.332Z,56.00
2022-12-22T12:58:37.829Z,60.17
2022-12-22T13:01:05.113Z,58.03
2022-12-22T13:06:40.471Z,62.55
2022-12-22T13:09:48.503Z,61.45
2022-12-22T13:12:14.455Z,51.47
2022-12-22T13:14:55.589Z,52.70
2022-12-22T13:17:42.351Z,58.08
2022-12-22T13:20:15.850Z,53.88
2022-12-22T13:22:44.381Z,51.40
2022-12-22T13:25:16.502Z,53.60
2022-12-22T13:27:43.944Z,55.72
2022-12-22T13:30:16.153Z,53.72
2022-12-22T13:32:43.841Z,51.53
2022-12-22T13:35:32.151Z,58.70
2022-12-22T13:38:00.700Z,56.03
2022-12-22T13:40:32.167Z,54.70
2022-12-22T13:43:10.243Z,57.38
2022-12-22T13:45:37.535Z,56.63
2022-12-22T13:48:23.580Z,54.80
2022-12-22T13:50:56.031Z,60.65
2022-12-22T13:56:20.695Z,56.05
2022-12-22T13:58:48.182Z,62.63
2022-12-22T14:01:17.107Z,62.58
2022-12-22T14:04:00.271Z,58.80
2022-12-22T14:06:36.406Z,53.55
2022-12-22T14:09:12.561Z,61.13
2022-12-22T14:11:42.866Z,55.63
2022-12-22T14:14:17.338Z,53.88
2022-12-22T14:16:49.379Z,55.33
2022-12-22T14:19:20.656Z,54.95
2022-12-22T14:24:17.589Z,56.38
2022-12-22T14:26:44.991Z,59.22
2022-12-22T14:29:18.009Z,58.10
2022-12-22T14:31:52.385Z,53.22
2022-12-22T14:34:30.195Z,58.28
2022-12-22T14:37:00.858Z,57.60
2022-12-22T14:39:31.838Z,54.95
2022-12-22T14:42:00.712Z,61.25
2022-12-22T14:44:33.296Z,61.08
2022-12-22T14:47:15.037Z,65.28
2022-12-22T14:49:51.249Z,66.72
2022-12-22T14:52:21.128Z,59.35
2022-12-22T14:54:49.515Z,55.42
2022-12-22T19:56:55.827Z,92.97
2022-12-22T19:59:39.311Z,94.28
2022-12-22T20:02:27.140Z,90.07
2022-12-22T20:04:54.861Z,93.05
2022-12-22T20:07:23.116Z,90.57
2022-12-22T20:09:50.360Z,94.10
2022-12-22T20:12:25.641Z,96.70
2022-12-22T20:14:53.509Z,100.65
2022-12-22T20:17:20.820Z,100.07
2022-12-22T20:19:47.965Z,94.78
2022-12-22T20:22:19.232Z,91.63
2022-12-22T20:27:18.139Z,95.57
2022-12-22T20:29:45.394Z,95.93
2022-12-22T20:32:14.089Z,94.28
2022-12-22T20:34:41.881Z,93.22
2022-12-22T20:37:16.088Z,98.18
2022-12-22T20:39:43.381Z,97.10
2022-12-22T20:42:21.130Z,92.30
2022-12-22T20:45:03.344Z,86.90
2022-12-22T20:47:32.565Z,94.85
2022-12-22T20:49:59.933Z,95.53
2022-12-22T20:52:27.114Z,96.15
2022-12-22T20:54:54.290Z,98.82
2022-12-22T20:57:22.272Z,92.40
2022-12-22T20:59:55.768Z,104.05
2022-12-22T21:02:27.217Z,100.47
2022-12-22T21:04:54.695Z,98.53
2022-12-22T21:07:21.847Z,94.97
2022-12-22T21:09:49.194Z,90.60
2022-12-22T21:12:16.363Z,103.47
2022-12-22T21:14:44.785Z,100.22
2022-12-22T21:17:21.180Z,94.78
2022-12-22T21:19:48.313Z,96.47
2022-12-22T21:22:15.473Z,99.05
2022-12-22T21:24:43.874Z,99.78
2022-12-22T21:27:16.178Z,93.57
2022-12-22T21:29:43.315Z,92.90
2022-12-22T21:32:16.485Z,93.88
2022-12-22T21:34:43.673Z,94.85
2022-12-22T21:37:15.685Z,83.70
2022-12-22T21:39:44.813Z,89.30
2022-12-22T21:42:16.395Z,88.55
2022-12-22T21:44:45.190Z,80.85
2022-12-22T21:47:13.666Z,86.25
2022-12-22T21:49:40.839Z,87.32
2022-12-22T21:52:08.045Z,84.90
2022-12-22T21:54:35.163Z,79.00
2022-12-22T21:57:02.314Z,81.10
2022-12-22T21:59:29.518Z,77.82
2022-12-22T22:01:57.142Z,77.78
2022-12-22T22:04:24.597Z,77.95
2022-12-22T22:06:51.789Z,80.15
2022-12-22T22:09:19.008Z,83.07
2022-12-22T22:12:04.816Z,76.13
2022-12-22T22:14:31.927Z,73.38
2022-12-22T22:16:59.053Z,79.05
2022-12-22T22:19:26.246Z,71.10
2022-12-22T22:21:53.400Z,70.68
2022-12-22T22:24:20.551Z,73.63
2022-12-22T22:26:49.314Z,72.88
2022-12-22T22:29:16.617Z,75.05
2022-12-22T22:31:44.031Z,74.63
2022-12-22T22:34:11.317Z,73.40
2022-12-22T22:36:38.450Z,72.60
2022-12-22T22:39:05.637Z,73.63
2022-12-22T22:41:39.316Z,74.20
2022-12-22T22:44:09.996Z,72.43
2022-12-22T22:46:37.270Z,66.72
2022-12-22T22:49:04.459Z,68.75
2022-12-22T22:51:31.600Z,74.25
2022-12-22T22:53:59.014Z,69.53
2022-12-22T22:56:26.257Z,61.38
2022-12-22T22:58:53.419Z,66.07
2022-12-22T23:01:20.601Z,62.78
2022-12-22T23:03:47.886Z,62.63
2022-12-22T23:06:15.382Z,62.17
2022-12-22T23:08:42.866Z,63.13
2022-12-22T23:11:16.342Z,66.45
2022-12-22T23:13:43.665Z,65.10
2022-12-22T23:16:10.901Z,64.93
2022-12-22T23:18:38.331Z,63.38
2022-12-22T23:21:06.324Z,62.33
2022-12-22T23:23:34.108Z,59.10
2022-12-22T23:26:01.476Z,61.78
2022-12-22T23:28:28.669Z,56.35
2022-12-22T23:30:55.903Z,62.95
2022-12-22T23:33:23.190Z,63.92
2022-12-22T23:35:50.910Z,60.05
2022-12-22T23:38:20.424Z,59.40
2022-12-22T23:40:53.087Z,62.00
2022-12-22T23:43:21.649Z,60.10
2022-12-22T23:45:48.807Z,59.65
2022-12-22T23:48:15.948Z,52.83
2022-12-22T23:50:46.404Z,53.67
2022-12-22T23:53:13.631Z,58.97
2022-12-22T23:55:47.371Z,63.20
2022-12-22T23:58:14.748Z,55.78
